Time;durP1;ratioP1;P1;durP2;ratioP2;P2;SDS_P1;SDS_P2;PMS_P1;PMS_P2;Temp;Humidity;BMP_temperature;BMP_pressure;BME280_temperature;BME280_humidity;BME280_pressure;Samples;Min_cycle;Max_cycle;Signal;HPM_P1;HPM_P2
2022/01/26 00:00:05;;;;;;;32.45;17.27;;;;;;;-4.10;85.11;97892.66;2071074;28;20221;-59
2022/01/26 00:06:24;;;;;;;32.92;15.75;;;;;;;-3.88;86.18;97909.97;2071874;28;20939;-59
2022/01/26 00:07:25;;;;;;;39.35;17.98;;;;;;;-3.94;86.51;97907.34;2072406;28;20209;-59
2022/01/26 00:08:27;;;;;;;30.02;15.35;;;;;;;-3.89;87.11;97909.94;2072299;28;20202;-58
2022/01/26 00:09:28;;;;;;;33.42;16.63;;;;;;;-3.95;86.85;97902.19;2071893;28;20198;-61
2022/01/26 00:10:30;;;;;;;32.42;16.88;;;;;;;-3.93;87.19;97898.81;2072330;28;20193;-60
2022/01/26 00:11:32;;;;;;;50.63;18.75;;;;;;;-4.09;86.90;97889.28;2072331;28;20194;-60
2022/01/26 00:12:34;;;;;;;38.90;17.92;;;;;;;-4.06;86.62;97900.38;2072140;28;20194;-61
2022/01/26 00:13:36;;;;;;;39.58;18.73;;;;;;;-4.03;86.43;97891.88;2072262;28;20220;-60
2022/01/26 00:14:41;;;;;;;34.63;18.30;;;;;;;-4.07;86.53;97892.72;2071823;28;20233;-60
2022/01/26 00:15:43;;;;;;;37.42;18.40;;;;;;;-4.13;86.43;97888.38;2072084;28;20194;-60
2022/01/26 00:16:45;;;;;;;38.13;18.50;;;;;;;-3.96;86.58;97898.75;2072152;28;20645;-61
2022/01/26 00:17:46;;;;;;;46.92;18.60;;;;;;;-4.01;86.12;97856.94;2075294;28;20676;-60
2022/01/26 00:18:49;;;;;;;41.08;19.00;;;;;;;-3.85;85.88;97897.16;2075409;28;20213;-60
2022/01/26 00:20:01;;;;;;;43.00;18.55;;;;;;;-4.03;86.16;97884.22;2070253;28;20888;-61
2022/01/26 00:21:09;;;;;;;38.83;18.58;;;;;;;-4.01;86.66;97898.72;2072178;28;20621;-61
2022/01/26 00:22:11;;;;;;;37.85;17.98;;;;;;;-4.10;87.35;97880.72;2071931;28;20221;-60
2022/01/26 00:26:06;;;;;;;42.13;19.80;;;;;;;-4.26;88.78;97900.19;2071682;28;20194;-60
2022/01/26 00:27:06;;;;;;;59.15;19.55;;;;;;;-4.52;89.66;97876.03;2071514;28;20719;-60
2022/01/26 00:28:32;;;;;;;59.97;21.20;;;;;;;-4.50;91.60;97897.38;2071053;28;20198;-61
2022/01/26 00:29:41;;;;;;;49.75;21.58;;;;;;;-4.18;91.00;97900.25;2071707;28;20212;-61
2022/01/26 00:38:43;;;;;;;46.50;18.33;;;;;;;-3.77;90.64;97897.22;2072190;28;20299;-60
2022/01/26 00:39:45;;;;;;;72.13;18.55;;;;;;;-3.69;90.22;97899.88;2072578;28;20229;-60
2022/01/26 00:40:53;;;;;;;55.67;19.60;;;;;;;-3.66;91.02;97905.88;2073911;28;20693;-60
2022/01/26 00:41:58;;;;;;;51.83;20.85;;;;;;;-3.65;90.89;97902.44;2073409;28;20206;-60
2022/01/26 00:43:14;;;;;;;46.90;20.20;;;;;;;-3.54;90.47;97899.13;2073520;28;20197;-60
2022/01/26 00:44:15;;;;;;;44.38;17.85;;;;;;;-3.58;90.59;97890.56;2073698;28;20691;-60
2022/01/26 00:45:21;;;;;;;74.10;20.27;;;;;;;-4.09;91.85;97896.94;2073588;28;20297;-60
2022/01/26 00:46:24;;;;;;;53.72;17.92;;;;;;;-4.03;92.42;97892.75;2073207;28;20198;-60
2022/01/26 00:47:25;;;;;;;53.17;18.83;;;;;;;-3.73;92.49;97895.56;2073618;28;20194;-60
2022/01/26 00:48:30;;;;;;;51.92;19.75;;;;;;;-3.70;92.12;97898.16;2073692;28;20224;-60
2022/01/26 00:49:32;;;;;;;48.33;19.58;;;;;;;-3.58;91.55;97888.00;2073335;28;20194;-60
2022/01/26 00:50:35;;;;;;;47.55;17.80;;;;;;;-3.39;90.83;97894.97;2073616;28;20197;-60
2022/01/26 00:51:37;;;;;;;46.10;19.58;;;;;;;-3.29;90.44;97897.59;2073373;28;20206;-60
2022/01/26 00:52:41;;;;;;;36.45;17.83;;;;;;;-3.36;90.18;97901.81;2073662;28;20205;-60
2022/01/26 00:53:50;;;;;;;59.65;19.10;;;;;;;-3.28;90.61;97902.72;2072565;28;20190;-60
2022/01/26 00:54:51;;;;;;;39.75;16.40;;;;;;;-3.22;90.33;97905.31;2072868;28;20229;-60
2022/01/26 00:55:53;;;;;;;35.38;15.27;;;;;;;-3.36;90.24;97877.91;2073747;28;20217;-61
2022/01/26 00:56:54;;;;;;;40.58;16.88;;;;;;;-3.10;90.24;97899.41;2073802;28;20205;-60
2022/01/26 00:57:56;;;;;;;50.78;15.82;;;;;;;-3.30;90.54;97901.84;2073609;28;20190;-60
2022/01/26 00:58:58;;;;;;;34.10;16.20;;;;;;;-3.27;91.24;97904.47;2072338;28;20649;-60
2022/01/26 01:00:00;;;;;;;59.67;16.38;;;;;;;-3.26;90.97;97903.59;2071937;28;20221;-61
2022/01/26 01:01:03;;;;;;;43.55;17.70;;;;;;;-3.35;92.08;97910.34;2073157;28;20202;-60
2022/01/26 01:02:05;;;;;;;40.75;16.67;;;;;;;-3.23;91.67;97911.31;2072028;28;20237;-60
2022/01/26 01:03:07;;;;;;;66.15;17.20;;;;;;;-3.26;91.22;97895.91;2073205;28;20198;-60
2022/01/26 01:04:09;;;;;;;85.07;17.98;;;;;;;-3.39;91.56;97907.78;2073462;28;20195;-60
2022/01/26 01:05:18;;;;;;;104.18;19.73;;;;;;;-3.49;91.84;97902.56;2076666;28;20237;-60
2022/01/26 01:07:24;;;;;;;75.18;18.00;;;;;;;-3.41;92.91;97912.06;2073307;28;20214;-60
2022/01/26 01:08:26;;;;;;;41.53;15.50;;;;;;;-3.23;92.90;97915.59;2076427;28;20554;-60
2022/01/26 01:09:32;;;;;;;41.72;16.77;;;;;;;-3.16;92.35;97896.81;2076419;28;20634;-60
2022/01/26 01:10:34;;;;;;;53.65;17.58;;;;;;;-3.16;91.97;97909.63;2072253;28;20198;-60
2022/01/26 01:11:35;;;;;;;37.15;17.40;;;;;;;-3.22;92.69;97909.59;2073504;28;20212;-60
2022/01/26 01:12:43;;;;;;;36.35;16.45;;;;;;;-3.21;92.98;97904.50;2073487;28;20199;-59
2022/01/26 01:13:45;;;;;;;89.50;18.52;;;;;;;-3.65;93.67;97891.34;2076845;28;20209;-60
2022/01/26 01:14:46;;;;;;;101.07;21.15;;;;;;;-3.66;94.22;97902.47;2076235;28;20216;-60
2022/01/26 01:15:49;;;;;;;102.53;19.45;;;;;;;-3.83;94.59;97867.31;2072029;28;20228;-60
2022/01/26 01:16:53;;;;;;;131.82;18.83;;;;;;;-3.73;94.70;97893.84;2073651;28;20208;-60
2022/01/26 01:18:15;;;;;;;125.22;19.90;;;;;;;-3.69;94.71;97899.88;2073600;28;20649;-60
2022/01/26 01:21:42;;;;;;;210.45;24.30;;;;;;;-3.52;94.40;97882.94;2056068;28;20207;-60
2022/01/26 01:22:49;;;;;;;35.75;15.48;;;;;;;-3.13;94.51;97912.22;2055545;28;20229;-60
2022/01/26 01:29:40;;;;;;;148.18;24.02;;;;;;;-3.01;93.28;97896.91;2055437;28;20211;-60
2022/01/26 01:30:46;;;;;;;98.10;19.08;;;;;;;-3.01;93.99;97896.91;2055263;28;20214;-60
2022/01/26 01:31:57;;;;;;;225.70;26.45;;;;;;;-3.32;94.36;97897.59;2055895;28;20227;-60
2022/01/26 01:33:09;;;;;;;207.55;24.90;;;;;;;-3.10;94.42;97896.84;2056090;28;20200;-60
2022/01/26 01:34:14;;;;;;;86.18;18.88;;;;;;;-3.15;94.82;97898.56;2055810;28;20203;-60
2022/01/26 01:35:16;;;;;;;74.82;18.92;;;;;;;-3.43;95.68;97869.31;2054818;28;20599;-60
2022/01/26 01:36:20;;;;;;;48.78;18.15;;;;;;;-3.18;96.05;97903.66;2053782;28;20199;-60
2022/01/26 01:37:22;;;;;;;60.60;18.73;;;;;;;-3.16;95.79;97895.97;2056791;28;20211;-65
2022/01/26 01:38:26;;;;;;;57.85;18.85;;;;;;;-2.89;95.58;97908.09;2055871;28;20199;-63
2022/01/26 01:39:29;;;;;;;51.38;17.77;;;;;;;-2.94;94.89;97895.28;2055359;28;20207;-64
2022/01/26 01:40:31;;;;;;;272.33;26.42;;;;;;;-3.10;94.68;97901.13;2055917;28;20195;-63
2022/01/26 01:41:34;;;;;;;212.05;25.85;;;;;;;-3.16;94.64;97863.50;2056037;28;20218;-63
2022/01/26 01:42:35;;;;;;;103.20;19.30;;;;;;;-3.15;94.64;97870.38;2055514;28;20196;-63
2022/01/26 01:43:37;;;;;;;86.35;19.73;;;;;;;-3.12;95.25;97878.06;2056007;28;20199;-63
2022/01/26 01:44:39;;;;;;;60.78;17.58;;;;;;;-2.89;95.28;97902.97;2055466;28;20366;-63
2022/01/26 01:45:46;;;;;;;66.97;16.23;;;;;;;-2.92;95.73;97905.50;2055637;28;20191;-63
2022/01/26 01:46:49;;;;;;;56.90;17.35;;;;;;;-2.79;95.40;97907.28;2055901;28;20203;-63
2022/01/26 01:47:51;;;;;;;109.22;18.08;;;;;;;-2.90;95.51;97898.69;2055933;28;20208;-63
2022/01/26 01:48:52;;;;;;;83.50;18.23;;;;;;;-2.78;95.31;97904.75;2055852;28;20203;-63
2022/01/26 01:49:54;;;;;;;81.70;17.13;;;;;;;-2.82;95.17;97899.59;2055408;28;20231;-63
2022/01/26 01:50:58;;;;;;;83.90;19.65;;;;;;;-2.82;94.90;97900.44;2055887;28;20223;-63
2022/01/26 01:52:03;;;;;;;120.88;20.80;;;;;;;-2.89;95.28;97879.91;2054415;28;20215;-63
2022/01/26 01:53:05;;;;;;;63.13;18.30;;;;;;;-2.87;94.70;97893.59;2055763;28;20196;-63
2022/01/26 01:54:17;;;;;;;143.50;19.48;;;;;;;-2.86;94.84;97901.28;2055951;28;20881;-63
2022/01/26 01:55:19;;;;;;;99.35;20.08;;;;;;;-2.83;94.80;97905.56;2055640;28;20216;-63
2022/01/26 01:56:24;;;;;;;201.25;25.67;;;;;;;-2.88;94.49;97909.81;2072595;28;20202;-63
2022/01/26 01:57:26;;;;;;;223.57;24.45;;;;;;;-2.84;95.13;97881.63;2073269;28;20202;-63
2022/01/26 01:58:28;;;;;;;362.67;30.40;;;;;;;-2.70;94.23;97898.81;2073122;28;20203;-62
2022/01/26 01:59:32;;;;;;;145.05;20.88;;;;;;;-2.72;94.34;97879.97;2072090;28;20207;-63
2022/01/26 02:00:36;;;;;;;151.73;20.95;;;;;;;-2.76;94.10;97907.31;2072235;28;20209;-63
2022/01/26 02:01:37;;;;;;;138.13;20.45;;;;;;;-3.03;95.68;97908.03;2072807;28;20956;-63
2022/01/26 02:02:39;;;;;;;140.63;18.70;;;;;;;-3.25;96.22;97896.78;2072647;28;20736;-63
2022/01/26 02:03:41;;;;;;;82.28;17.80;;;;;;;-3.21;97.48;97909.63;2072717;28;20203;-63
2022/01/26 02:04:43;;;;;;;195.63;22.08;;;;;;;-3.24;97.01;97906.19;2069907;28;20213;-62
2022/01/26 02:05:44;;;;;;;194.35;24.23;;;;;;;-3.33;97.20;97906.97;2073137;28;20202;-63
2022/01/26 02:06:46;;;;;;;242.27;24.55;;;;;;;-3.24;97.36;97914.72;2072927;28;20288;-62
2022/01/26 02:07:47;;;;;;;223.23;24.95;;;;;;;-2.94;96.91;97913.22;2070171;28;20203;-62
2022/01/26 02:08:49;;;;;;;126.55;21.15;;;;;;;-3.22;96.66;97909.59;2072939;28;20652;-63
2022/01/26 02:09:50;;;;;;;51.03;18.08;;;;;;;-2.91;97.74;97909.81;2072413;28;20217;-63
2022/01/26 02:10:52;;;;;;;65.93;19.10;;;;;;;-3.00;97.00;97869.56;2073090;28;20207;-63
2022/01/26 02:11:56;;;;;;;54.95;16.70;;;;;;;-2.56;96.49;97899.69;2073080;28;20199;-62
2022/01/26 02:13:05;;;;;;;148.07;20.15;;;;;;;-2.75;95.48;97909.00;2073088;28;20195;-63
2022/01/26 02:14:13;;;;;;;133.18;20.67;;;;;;;-2.74;95.73;97904.72;2072918;28;20196;-62
2022/01/26 02:15:20;;;;;;;67.20;16.30;;;;;;;-2.75;96.49;97903.88;2071519;28;20218;-63
2022/01/26 02:16:33;;;;;;;183.88;21.50;;;;;;;-3.24;96.35;97904.47;2072639;28;20198;-62
2022/01/26 02:21:19;;;;;;;104.28;19.30;;;;;;;-3.10;96.52;97907.09;2072297;28;20206;-62
2022/01/26 02:51:10;;;;;;;58.92;18.75;;;;;;;-2.54;97.49;97892.88;2072794;28;20563;-62
2022/01/26 02:52:23;;;;;;;153.32;22.75;;;;;;;-2.61;97.04;97893.69;2071323;28;20205;-62
2022/01/26 02:55:47;;;;;;;143.30;23.30;;;;;;;-2.58;97.50;97888.59;2071059;28;20209;-62
2022/01/26 03:01:58;;;;;;;144.00;21.50;;;;;;;-2.51;96.62;97899.72;2072759;28;20199;-62
2022/01/26 03:03:13;;;;;;;114.50;22.73;;;;;;;-2.77;97.20;97879.94;2075597;28;20649;-62
2022/01/26 03:05:23;;;;;;;76.38;18.02;;;;;;;-2.68;97.90;97894.53;2072024;28;20225;-62
2022/01/26 03:06:32;;;;;;;81.28;19.40;;;;;;;-2.70;97.74;97897.09;2071376;28;20237;-62
2022/01/26 03:08:41;;;;;;;110.13;22.02;;;;;;;-2.75;97.94;97883.38;2072154;28;20194;-62
2022/01/26 03:09:48;;;;;;;219.45;25.83;;;;;;;-2.84;98.12;97886.75;2071217;28;20222;-62
2022/01/26 03:10:54;;;;;;;196.18;24.77;;;;;;;-2.87;98.45;97889.31;2071976;28;20205;-62
2022/01/26 03:11:57;;;;;;;141.88;21.55;;;;;;;-2.76;98.01;97884.25;2072258;28;20206;-63
2022/01/26 03:13:05;;;;;;;77.70;20.20;;;;;;;-2.68;98.22;97886.84;2072374;28;20748;-62
2022/01/26 03:15:26;;;;;;;236.85;26.55;;;;;;;-2.78;98.33;97886.78;2071510;28;20226;-63
2022/01/26 03:16:36;;;;;;;81.43;19.05;;;;;;;-2.51;98.43;97881.75;2072602;28;20231;-63
2022/01/26 03:20:12;;;;;;;172.43;23.05;;;;;;;-2.56;97.51;97853.53;2071336;28;20233;-62
2022/01/26 03:21:14;;;;;;;72.10;20.67;;;;;;;-2.42;97.66;97886.94;2071993;28;20194;-62
2022/01/26 03:29:08;;;;;;;77.53;18.45;;;;;;;-2.72;97.86;97862.03;2072554;28;20825;-62
2022/01/26 03:34:59;;;;;;;133.15;22.10;;;;;;;-2.74;98.73;97866.25;2080314;28;20221;-62
2022/01/26 03:36:02;;;;;;;127.07;21.70;;;;;;;-2.79;98.73;97876.53;2072700;28;20806;-62
2022/01/26 03:37:08;;;;;;;97.82;21.23;;;;;;;-2.71;98.55;97874.84;2072663;28;20212;-62
2022/01/26 03:38:18;;;;;;;76.97;19.63;;;;;;;-2.58;98.75;97875.75;2072502;28;20829;-62
2022/01/26 03:39:21;;;;;;;76.35;20.85;;;;;;;-2.60;98.65;97875.75;2072077;28;20197;-62
2022/01/26 03:40:31;;;;;;;56.88;19.23;;;;;;;-2.50;98.55;97880.91;2069684;28;20201;-62
2022/01/26 03:41:47;;;;;;;61.15;20.40;;;;;;;-2.54;98.64;97884.31;2064493;28;20639;-62
2022/01/26 03:42:48;;;;;;;65.25;20.38;;;;;;;-2.40;98.22;97880.94;2071655;28;20228;-62
2022/01/26 03:43:49;;;;;;;63.60;20.90;;;;;;;-2.61;98.05;97879.19;2072437;28;20234;-62
2022/01/26 03:44:51;;;;;;;50.92;18.48;;;;;;;-2.46;98.15;97883.47;2071831;28;20237;-62
2022/01/26 03:45:53;;;;;;;55.42;19.33;;;;;;;-2.36;97.81;97892.06;2072374;28;20209;-62
2022/01/26 03:46:54;;;;;;;47.97;20.98;;;;;;;-2.49;97.26;97857.84;2072401;28;20286;-62
2022/01/26 03:47:56;;;;;;;46.67;20.75;;;;;;;-2.23;97.01;97901.53;2072459;28;20202;-62
2022/01/26 03:48:57;;;;;;;63.13;20.10;;;;;;;-2.20;96.88;97904.09;2072443;28;20205;-62
2022/01/26 03:49:59;;;;;;;53.35;20.92;;;;;;;-2.31;96.97;97890.38;2071912;28;20230;-62
2022/01/26 03:51:01;;;;;;;58.22;19.92;;;;;;;-2.16;96.74;97898.97;2072503;28;20241;-62
2022/01/26 03:52:06;;;;;;;48.85;20.17;;;;;;;-2.15;96.11;97898.13;2072445;28;20198;-62
2022/01/26 03:53:07;;;;;;;47.65;20.10;;;;;;;-2.19;96.55;97900.69;2072157;28;20198;-62
2022/01/26 03:54:10;;;;;;;53.60;19.60;;;;;;;-2.31;96.41;97904.91;2072420;28;20199;-62
2022/01/26 03:55:11;;;;;;;49.03;19.75;;;;;;;-2.28;96.47;97890.38;2070206;28;20306;-62
2022/01/26 03:56:13;;;;;;;48.00;19.60;;;;;;;-2.18;96.20;97901.53;2072422;28;20209;-62
2022/01/26 03:57:14;;;;;;;61.33;21.58;;;;;;;-2.09;95.92;97899.00;2072421;28;20199;-62
2022/01/26 03:58:16;;;;;;;50.75;20.90;;;;;;;-2.06;95.51;97905.84;2072241;28;20198;-62
2022/01/26 03:59:17;;;;;;;56.35;20.52;;;;;;;-2.15;95.59;97890.44;2072086;28;20206;-62
2022/01/26 04:00:19;;;;;;;63.17;21.40;;;;;;;-2.13;95.40;97897.28;2072411;28;20198;-62
2022/01/26 04:01:21;;;;;;;68.80;21.40;;;;;;;-2.34;95.14;97882.66;2072437;28;20194;-62
2022/01/26 04:02:23;;;;;;;73.28;21.02;;;;;;;-2.20;95.60;97893.81;2072006;28;20202;-62
2022/01/26 04:03:25;;;;;;;87.07;22.23;;;;;;;-2.27;95.99;97891.25;2071408;28;20199;-62
2022/01/26 04:04:30;;;;;;;70.47;22.10;;;;;;;-2.30;95.92;97897.22;2071917;28;20301;-61
2022/01/26 04:05:32;;;;;;;55.03;23.02;;;;;;;-2.21;95.59;97901.53;2072338;28;20195;-62
2022/01/26 04:06:34;;;;;;;57.72;22.63;;;;;;;-2.14;95.92;97899.81;2071022;28;20238;-60
2022/01/26 04:07:36;;;;;;;91.60;22.25;;;;;;;-2.16;95.99;97896.41;2072416;28;20231;-60
2022/01/26 04:08:41;;;;;;;76.75;22.42;;;;;;;-1.99;95.62;97890.44;2072041;28;20206;-60
2022/01/26 04:09:42;;;;;;;158.15;24.60;;;;;;;-2.02;94.80;97889.56;2071359;28;20215;-60
2022/01/26 04:12:04;;;;;;;71.30;21.75;;;;;;;-2.30;95.63;97892.09;2072308;28;20199;-60
2022/01/26 04:13:05;;;;;;;56.63;22.05;;;;;;;-2.48;95.79;97874.06;2071844;28;20692;-60
2022/01/26 04:14:13;;;;;;;53.30;19.02;;;;;;;-2.33;95.96;97894.66;2071628;28;20202;-60
2022/01/26 04:15:25;;;;;;;48.15;19.50;;;;;;;-2.03;95.69;97896.44;2071785;28;20956;-60
2022/01/26 04:16:27;;;;;;;52.47;21.35;;;;;;;-2.15;94.53;97880.16;2070688;28;20323;-60
2022/01/26 04:17:29;;;;;;;56.75;22.13;;;;;;;-2.24;94.62;97896.38;2072285;28;20286;-60
2022/01/26 04:18:37;;;;;;;91.22;23.25;;;;;;;-2.23;94.88;97898.97;2072104;28;20204;-60
2022/01/26 04:19:40;;;;;;;65.32;20.63;;;;;;;-2.17;95.30;97897.28;2070284;28;20704;-60
2022/01/26 04:20:46;;;;;;;64.78;22.85;;;;;;;-2.34;95.69;97904.91;2075681;28;20195;-60
2022/01/26 04:22:56;;;;;;;77.78;22.42;;;;;;;-2.23;95.28;97896.38;2070406;28;20206;-60
2022/01/26 04:24:11;;;;;;;58.47;20.75;;;;;;;-2.40;95.73;97895.47;2071860;28;20205;-60
2022/01/26 04:25:18;;;;;;;52.92;20.27;;;;;;;-2.28;96.11;97894.66;2071887;28;20228;-60
2022/01/26 04:26:28;;;;;;;64.25;21.63;;;;;;;-2.27;95.70;97898.97;2071406;28;20242;-60
2022/01/26 04:27:41;;;;;;;79.47;21.98;;;;;;;-2.35;95.80;97890.34;2072349;28;20202;-60
2022/01/26 04:28:52;;;;;;;89.88;21.75;;;;;;;-2.48;95.99;97877.50;2072138;28;20625;-60
2022/01/26 04:29:54;;;;;;;91.43;23.35;;;;;;;-2.54;96.16;97874.91;2071684;28;20703;-60
2022/01/26 04:30:55;;;;;;;99.47;21.85;;;;;;;-2.45;96.35;97886.91;2072349;28;20637;-60
2022/01/26 04:31:59;;;;;;;91.15;23.33;;;;;;;-2.71;96.56;97859.44;2079519;28;20525;-60
2022/01/26 04:33:04;;;;;;;124.28;25.75;;;;;;;-2.64;96.60;97880.88;2079399;28;20932;-60
2022/01/26 04:34:06;;;;;;;59.13;21.30;;;;;;;-2.58;96.95;97889.44;2071401;28;20210;-60
2022/01/26 04:35:09;;;;;;;61.22;21.02;;;;;;;-2.76;97.09;97842.31;2070279;28;20233;-60
2022/01/26 04:36:14;;;;;;;144.93;27.55;;;;;;;-2.58;97.01;97875.75;2072314;28;20585;-60
2022/01/26 04:38:23;;;;;;;63.28;22.60;;;;;;;-2.53;96.74;97861.22;2072206;28;20205;-60
2022/01/26 04:39:40;;;;;;;98.40;22.92;;;;;;;-2.46;96.94;97883.47;2070707;28;20204;-60
2022/01/26 04:40:54;;;;;;;69.38;22.10;;;;;;;-2.54;96.94;97876.63;2071876;28;20202;-60
2022/01/26 04:42:01;;;;;;;113.32;27.73;;;;;;;-2.52;97.09;97875.78;2072038;28;20205;-60
2022/01/26 04:43:07;;;;;;;68.53;23.98;;;;;;;-2.55;97.26;97872.34;2071513;28;20285;-60
2022/01/26 04:44:20;;;;;;;70.07;22.08;;;;;;;-2.63;97.33;97873.19;2071596;28;20232;-60
2022/01/26 04:45:22;;;;;;;157.38;26.15;;;;;;;-2.71;97.75;97874.00;2070903;28;20230;-60
2022/01/26 04:46:26;;;;;;;78.07;23.30;;;;;;;-2.70;97.90;97874.00;2072160;28;20194;-60
2022/01/26 04:47:27;;;;;;;112.00;24.17;;;;;;;-2.74;97.93;97863.69;2071700;28;20198;-60
2022/01/26 04:48:29;;;;;;;118.30;23.70;;;;;;;-2.72;97.98;97875.69;2072062;28;20206;-60
2022/01/26 04:49:32;;;;;;;90.22;23.70;;;;;;;-2.67;98.39;97879.13;2071788;28;20202;-60
2022/01/26 04:50:33;;;;;;;158.38;27.45;;;;;;;-2.68;97.93;97869.72;2072130;28;20289;-60
2022/01/26 04:51:35;;;;;;;95.22;26.67;;;;;;;-2.72;97.90;97870.56;2072307;28;20201;-60
2022/01/26 04:52:37;;;;;;;317.92;32.80;;;;;;;-2.82;98.39;97879.09;2072224;28;20198;-60
2022/01/26 04:53:38;;;;;;;251.88;33.33;;;;;;;-2.83;98.38;97885.91;2072162;28;20724;-60
2022/01/26 04:54:40;;;;;;;93.72;23.23;;;;;;;-2.77;98.67;97885.06;2071674;28;20222;-60
2022/01/26 04:55:42;;;;;;;170.38;32.88;;;;;;;-2.74;98.65;97887.66;2072001;28;20199;-60
2022/01/26 04:56:43;;;;;;;103.45;24.35;;;;;;;-2.70;99.01;97875.72;2072149;28;20194;-60
2022/01/26 04:57:45;;;;;;;165.60;29.33;;;;;;;-2.81;98.92;97884.19;2072290;28;20198;-60
2022/01/26 04:58:50;;;;;;;189.27;30.30;;;;;;;-2.90;99.18;97885.84;2072219;28;20525;-61
2022/01/26 04:59:51;;;;;;;313.45;31.65;;;;;;;-2.90;99.29;97888.41;2071739;28;20230;-60
2022/01/26 05:00:53;;;;;;;152.30;30.13;;;;;;;-2.89;98.92;97864.50;2072183;28;20202;-60
2022/01/26 05:01:54;;;;;;;351.13;36.17;;;;;;;-3.09;99.33;97867.84;2072150;28;20650;-60
2022/01/26 05:02:56;;;;;;;79.90;23.92;;;;;;;-2.98;99.66;97885.81;2072183;28;20210;-60
2022/01/26 05:03:58;;;;;;;179.60;29.60;;;;;;;-3.18;99.83;97858.38;2072107;28;20228;-60
2022/01/26 05:04:59;;;;;;;162.57;26.73;;;;;;;-3.10;99.64;97876.34;2070744;28;20221;-60
2022/01/26 05:06:01;;;;;;;230.13;30.25;;;;;;;-3.09;100.00;97872.97;2070839;28;20198;-60
2022/01/26 05:07:02;;;;;;;168.27;29.27;;;;;;;-3.09;100.00;97865.25;2071509;28;20205;-60
2022/01/26 05:08:04;;;;;;;195.20;31.42;;;;;;;-3.08;100.00;97869.53;2071556;28;20201;-60
2022/01/26 05:09:06;;;;;;;261.25;33.83;;;;;;;-3.13;100.00;97870.38;2071595;28;20202;-60
2022/01/26 05:10:07;;;;;;;146.40;28.13;;;;;;;-3.12;100.00;97877.19;2071010;28;20228;-60
2022/01/26 05:11:12;;;;;;;148.65;25.75;;;;;;;-3.07;100.00;97878.94;2071705;28;20194;-60
2022/01/26 05:12:29;;;;;;;107.38;23.77;;;;;;;-2.94;100.00;97881.56;2071925;28;20193;-60
2022/01/26 05:13:31;;;;;;;341.52;34.45;;;;;;;-3.15;100.00;97877.19;2071853;28;20191;-60
2022/01/26 05:14:32;;;;;;;204.95;30.92;;;;;;;-3.26;100.00;97854.91;2071436;28;20580;-60
2022/01/26 05:15:34;;;;;;;127.10;26.73;;;;;;;-3.04;100.00;97889.22;2070591;28;20197;-60
2022/01/26 05:16:35;;;;;;;230.25;29.17;;;;;;;-3.10;99.94;97881.47;2071886;28;20638;-60
2022/01/26 05:17:39;;;;;;;121.60;25.13;;;;;;;-3.07;100.00;97891.75;2070679;28;20208;-60
2022/01/26 05:18:40;;;;;;;215.60;30.60;;;;;;;-3.02;100.00;97889.22;2072181;28;20194;-60
2022/01/26 05:19:42;;;;;;;116.13;26.30;;;;;;;-3.00;100.00;97893.53;2071628;28;20221;-60
2022/01/26 05:20:43;;;;;;;192.10;29.17;;;;;;;-3.01;99.97;97893.50;2072766;28;20201;-60
2022/01/26 05:21:45;;;;;;;135.10;26.35;;;;;;;-3.16;99.64;97865.22;2072860;28;20198;-60
2022/01/26 05:22:47;;;;;;;134.88;26.40;;;;;;;-3.02;100.00;97900.34;2073640;28;20212;-59
2022/01/26 05:23:48;;;;;;;137.63;25.13;;;;;;;-3.00;99.88;97898.66;2073511;28;20202;-60
2022/01/26 05:24:52;;;;;;;149.60;25.25;;;;;;;-3.00;100.00;97896.09;2072240;28;20826;-60
2022/01/26 05:25:54;;;;;;;93.07;24.38;;;;;;;-2.96;100.00;97898.66;2073595;28;20198;-60
2022/01/26 05:26:55;;;;;;;90.97;23.50;;;;;;;-2.94;99.96;97881.56;2073335;28;20225;-60
2022/01/26 05:27:57;;;;;;;344.77;34.17;;;;;;;-2.94;99.94;97895.28;2073557;28;20209;-60
2022/01/26 05:28:58;;;;;;;138.52;25.52;;;;;;;-3.02;99.79;97894.34;2072804;28;20205;-60
2022/01/26 05:30:00;;;;;;;125.63;25.98;;;;;;;-3.10;100.00;97876.34;2071224;28;20840;-60
2022/01/26 05:31:01;;;;;;;161.90;29.05;;;;;;;-2.95;100.00;97896.09;2073554;28;20213;-60
2022/01/26 05:32:03;;;;;;;115.53;25.17;;;;;;;-3.02;100.00;97897.78;2073538;28;20205;-60
2022/01/26 05:33:05;;;;;;;119.07;24.75;;;;;;;-3.11;99.89;97887.47;2073229;28;20202;-60
2022/01/26 05:34:09;;;;;;;178.48;28.60;;;;;;;-3.32;100.00;97848.91;2073336;28;20202;-60
2022/01/26 05:35:10;;;;;;;326.45;33.22;;;;;;;-3.07;100.00;97881.50;2071751;28;20222;-60
2022/01/26 05:36:12;;;;;;;330.63;33.25;;;;;;;-3.08;100.00;97886.63;2073516;28;20197;-60
2022/01/26 05:37:14;;;;;;;223.77;30.25;;;;;;;-3.09;100.00;97887.50;2073377;28;20199;-60
2022/01/26 05:38:15;;;;;;;219.40;29.73;;;;;;;-3.18;100.00;97884.00;2073128;28;20194;-60
2022/01/26 05:39:17;;;;;;;161.60;26.65;;;;;;;-3.10;100.00;97891.72;2071776;28;20202;-60
2022/01/26 05:40:18;;;;;;;192.65;29.88;;;;;;;-3.12;100.00;97893.44;2073409;28;20813;-60
2022/01/26 05:41:20;;;;;;;196.77;29.98;;;;;;;-3.01;100.00;97890.94;2073409;28;20229;-60
2022/01/26 05:42:22;;;;;;;104.00;24.55;;;;;;;-3.19;100.00;97860.94;2073381;28;20206;-60
2022/01/26 05:43:24;;;;;;;215.30;27.63;;;;;;;-3.08;100.00;97890.03;2073275;28;20202;-60
2022/01/26 05:44:25;;;;;;;130.85;26.63;;;;;;;-3.11;100.00;97900.28;2072690;28;20223;-60
2022/01/26 05:45:38;;;;;;;136.85;26.23;;;;;;;-3.11;100.00;97900.28;2072328;28;20217;-61
2022/01/26 05:46:46;;;;;;;274.63;32.97;;;;;;;-3.07;100.00;97902.03;2073253;28;20209;-60
2022/01/26 05:47:48;;;;;;;96.88;25.15;;;;;;;-2.92;100.00;97893.56;2072673;28;20201;-60
2022/01/26 05:48:51;;;;;;;164.35;28.45;;;;;;;-2.93;99.96;97898.69;2073217;28;20210;-60
2022/01/26 05:49:53;;;;;;;116.78;24.88;;;;;;;-2.95;99.96;97885.00;2072345;28;20720;-61
2022/01/26 05:51:04;;;;;;;82.07;24.42;;;;;;;-2.99;100.00;97897.78;2073286;28;20197;-60
2022/01/26 05:52:06;;;;;;;93.35;24.13;;;;;;;-3.12;100.00;97862.66;2075219;28;20190;-60
2022/01/26 05:53:07;;;;;;;249.45;32.40;;;;;;;-2.97;100.00;97891.81;2076633;28;20202;-61
2022/01/26 05:54:10;;;;;;;192.75;29.42;;;;;;;-3.09;100.00;97877.22;2073415;28;20333;-61
2022/01/26 05:55:11;;;;;;;167.73;29.08;;;;;;;-2.99;100.00;97889.25;2072695;28;20225;-61
2022/01/26 05:56:13;;;;;;;110.57;26.10;;;;;;;-3.07;100.00;97889.19;2073241;28;20205;-61
2022/01/26 05:57:15;;;;;;;115.38;25.95;;;;;;;-3.02;100.00;97884.97;2073137;28;20198;-61
2022/01/26 05:58:17;;;;;;;210.55;30.35;;;;;;;-3.08;100.00;97887.47;2073259;28;20367;-61
2022/01/26 05:59:20;;;;;;;143.77;28.95;;;;;;;-3.12;100.00;97883.19;2072785;28;20198;-61
2022/01/26 06:00:22;;;;;;;174.30;28.77;;;;;;;-3.15;100.00;97883.19;2073258;28;20209;-61
2022/01/26 06:01:24;;;;;;;124.60;26.58;;;;;;;-3.09;100.00;97893.47;2073299;28;20201;-61
2022/01/26 06:02:25;;;;;;;237.50;71.32;;;;;;;-3.02;100.00;97892.66;2073028;28;20247;-62
2022/01/26 06:03:28;;;;;;;300.02;72.43;;;;;;;-3.01;100.00;97888.38;2073080;28;20204;-59
2022/01/26 06:04:30;;;;;;;255.23;34.70;;;;;;;-3.07;100.00;97881.50;2072698;28;20682;-60
2022/01/26 06:05:32;;;;;;;172.43;28.75;;;;;;;-3.01;100.00;97891.78;2073005;28;20214;-60
2022/01/26 06:06:34;;;;;;;81.78;23.27;;;;;;;-3.06;100.00;97880.69;2072922;28;20249;-61
2022/01/26 06:07:35;;;;;;;113.45;23.85;;;;;;;-3.04;100.00;97884.09;2073035;28;20238;-61
2022/01/26 06:08:37;;;;;;;127.25;25.52;;;;;;;-3.02;100.00;97887.53;2073007;28;20198;-61
2022/01/26 06:09:38;;;;;;;84.45;23.75;;;;;;;-3.08;100.00;97890.03;2072707;28;20221;-61
2022/01/26 06:10:40;;;;;;;187.38;28.38;;;;;;;-3.12;100.00;97888.31;2073091;28;20586;-61
2022/01/26 06:11:41;;;;;;;145.90;28.70;;;;;;;-3.22;100.00;97881.41;2073108;28;20567;-61
2022/01/26 06:12:43;;;;;;;126.13;26.00;;;;;;;-3.22;100.00;97881.41;2073036;28;20201;-61
2022/01/26 06:13:44;;;;;;;72.32;23.27;;;;;;;-3.28;100.00;97866.84;2073206;28;20204;-61
2022/01/26 06:14:46;;;;;;;105.10;24.23;;;;;;;-3.18;100.00;97881.44;2072536;28;20222;-61
2022/01/26 06:15:47;;;;;;;151.88;26.58;;;;;;;-3.25;100.00;97866.88;2072982;28;20660;-61
2022/01/26 06:16:49;;;;;;;344.20;41.35;;;;;;;-3.25;100.00;97876.28;2072985;28;20284;-61